createdAt,value
2022-09-06T00:00:10.390Z,45.50
2022-09-06T00:00:21.386Z,45.50
2022-09-06T00:00:33.392Z,45.50
2022-09-06T00:00:44.396Z,45.50
2022-09-06T00:00:55.404Z,45.50
2022-09-06T00:01:06.407Z,45.50
2022-09-06T00:01:18.411Z,45.50
2022-09-06T00:01:30.417Z,45.50
2022-09-06T00:01:42.422Z,45.60
2022-09-06T00:01:54.436Z,45.60
2022-09-06T00:02:05.439Z,45.50
2022-09-06T00:02:17.501Z,45.60
2022-09-06T00:02:28.434Z,45.60
2022-09-06T00:02:39.449Z,45.60
2022-09-06T00:02:51.454Z,45.60
2022-09-06T00:03:02.560Z,45.60
2022-09-06T00:03:14.421Z,45.50
2022-09-06T00:03:25.440Z,45.60
2022-09-06T00:03:36.505Z,45.60
2022-09-06T00:03:47.507Z,45.60
2022-09-06T00:03:58.519Z,45.60
2022-09-06T00:04:14.490Z,45.60
2022-09-06T00:04:21.492Z,45.60
2022-09-06T00:04:31.551Z,45.60
2022-09-06T00:04:43.437Z,45.60
2022-09-06T00:04:54.442Z,45.60
2022-09-06T00:05:05.460Z,45.60
2022-09-06T00:05:16.473Z,45.60
2022-09-06T00:05:28.384Z,45.60
2022-09-06T00:05:39.386Z,45.60
2022-09-06T00:05:50.398Z,45.60
2022-09-06T00:06:02.405Z,45.60
2022-09-06T00:06:14.408Z,45.60
2022-09-06T00:06:26.405Z,45.60
2022-09-06T00:06:37.420Z,45.60
2022-09-06T00:06:48.433Z,45.60
2022-09-06T00:06:59.451Z,45.60
2022-09-06T00:07:10.458Z,45.60
2022-09-06T00:07:21.475Z,45.60
2022-09-06T00:07:33.480Z,45.60
2022-09-06T00:07:45.409Z,45.60
2022-09-06T00:07:56.406Z,45.60
2022-09-06T00:08:07.410Z,45.60
2022-09-06T00:08:18.409Z,45.60
2022-09-06T00:08:29.422Z,45.60
2022-09-06T00:08:41.422Z,45.60
2022-09-06T00:08:52.424Z,45.60
2022-09-06T00:09:04.426Z,45.60
2022-09-06T00:09:15.430Z,45.60
2022-09-06T00:09:26.442Z,45.60
2022-09-06T00:09:38.450Z,45.60
2022-09-06T00:09:49.446Z,45.70
2022-09-06T00:10:01.447Z,45.70
2022-09-06T00:10:12.454Z,45.70
2022-09-06T00:10:23.467Z,45.70
2022-09-06T00:10:34.482Z,45.70
2022-09-06T00:10:46.388Z,45.70
2022-09-06T00:11:00.902Z,45.70
2022-09-06T00:11:08.425Z,45.70
2022-09-06T00:11:20.432Z,45.70
2022-09-06T00:11:31.434Z,45.70
2022-09-06T00:11:42.443Z,45.70
2022-09-06T00:11:53.466Z,45.70
2022-09-06T00:12:04.473Z,45.70
2022-09-06T00:12:15.465Z,45.70
2022-09-06T00:12:26.470Z,45.70
2022-09-06T00:12:37.475Z,45.70
2022-09-06T00:12:48.480Z,45.70
2022-09-06T00:12:59.385Z,45.70
2022-09-06T00:13:10.393Z,45.70
2022-09-06T00:13:21.402Z,45.70
2022-09-06T00:13:32.408Z,45.70
2022-09-06T00:13:43.416Z,45.70
2022-09-06T00:13:55.417Z,45.70
2022-09-06T00:14:06.434Z,45.70
2022-09-06T00:14:18.422Z,45.70
2022-09-06T00:14:30.422Z,45.70
2022-09-06T00:14:41.427Z,45.70
2022-09-06T00:14:53.431Z,45.70
2022-09-06T00:15:04.443Z,45.70
2022-09-06T00:15:15.444Z,45.70
2022-09-06T00:15:27.505Z,45.70
2022-09-06T00:15:38.514Z,45.70
2022-09-06T00:15:50.470Z,45.70
2022-09-06T00:16:01.454Z,45.70
2022-09-06T00:16:12.556Z,45.70
2022-09-06T00:16:27.294Z,45.70
2022-09-06T00:16:36.454Z,45.70
2022-09-06T00:16:47.455Z,45.70
2022-09-06T00:16:58.476Z,45.70
2022-09-06T00:17:09.475Z,45.70
2022-09-06T00:17:21.485Z,45.70
2022-09-06T00:17:33.395Z,45.70
2022-09-06T00:17:45.412Z,45.70
2022-09-06T00:17:56.425Z,45.70
2022-09-06T00:18:07.445Z,45.70
2022-09-06T00:18:18.444Z,45.70
2022-09-06T00:18:30.445Z,45.79
2022-09-06T00:18:42.452Z,45.70
2022-09-06T00:18:53.467Z,45.79
2022-09-06T00:19:04.467Z,45.79
2022-09-06T00:19:15.472Z,45.79
2022-09-06T00:19:26.386Z,45.79
2022-09-06T00:19:37.387Z,45.79
2022-09-06T00:19:48.387Z,45.79
2022-09-06T00:19:59.401Z,45.79
2022-09-06T00:20:10.422Z,45.79
2022-09-06T00:20:22.429Z,45.79
2022-09-06T00:20:33.443Z,45.79
2022-09-06T00:20:45.452Z,45.79
2022-09-06T00:20:56.466Z,45.79
2022-09-06T00:21:08.468Z,45.79
2022-09-06T00:21:20.392Z,45.79
2022-09-06T00:21:32.409Z,45.79
2022-09-06T00:21:43.410Z,45.79
2022-09-06T00:21:55.409Z,45.79
2022-09-06T00:22:06.420Z,45.79
2022-09-06T00:22:17.435Z,45.79
2022-09-06T00:22:28.442Z,45.79
2022-09-06T00:22:40.452Z,45.79
2022-09-06T00:22:51.460Z,45.79
2022-09-06T00:23:02.469Z,45.79
2022-09-06T00:23:13.477Z,45.79
2022-09-06T00:23:24.481Z,45.79
2022-09-06T00:23:36.385Z,45.79
2022-09-06T00:23:47.391Z,45.79
2022-09-06T00:23:58.401Z,45.79
2022-09-06T00:24:09.408Z,45.79
2022-09-06T00:24:20.417Z,45.79
2022-09-06T00:24:32.424Z,45.79
2022-09-06T00:24:43.440Z,45.79
2022-09-06T00:24:55.442Z,45.79
2022-09-06T00:25:07.448Z,45.79
2022-09-06T00:25:18.445Z,45.79
2022-09-06T00:25:30.446Z,45.79
2022-09-06T00:25:42.451Z,45.79
2022-09-06T00:25:54.452Z,45.79
2022-09-06T00:26:05.454Z,45.79
2022-09-06T00:26:16.474Z,45.79
2022-09-06T00:26:27.505Z,45.79
2022-09-06T00:26:39.434Z,45.79
2022-09-06T00:26:50.455Z,45.79
2022-09-06T00:27:01.471Z,45.79
2022-09-06T00:27:13.395Z,45.79
2022-09-06T00:27:24.405Z,45.79
2022-09-06T00:27:35.431Z,45.79
2022-09-06T00:27:46.449Z,45.79
2022-09-06T00:27:57.477Z,45.79
2022-09-06T00:28:09.394Z,45.90
2022-09-06T00:28:20.412Z,45.90
2022-09-06T00:28:31.429Z,45.79
2022-09-06T00:28:42.454Z,45.90
2022-09-06T00:28:53.468Z,45.90
2022-09-06T00:29:04.472Z,45.90
2022-09-06T00:29:15.389Z,45.90
2022-09-06T00:29:26.422Z,45.90
2022-09-06T00:29:37.451Z,45.90
2022-09-06T00:29:48.461Z,45.90
2022-09-06T00:29:59.469Z,45.90
2022-09-06T00:30:10.385Z,45.90
2022-09-06T00:30:21.399Z,45.90
2022-09-06T00:30:32.429Z,45.90
2022-09-06T00:30:43.539Z,45.90
2022-09-06T00:30:54.520Z,45.90
2022-09-06T00:31:05.451Z,45.90
2022-09-06T00:31:16.567Z,45.90
2022-09-06T00:31:27.530Z,45.90
2022-09-06T00:31:39.407Z,45.90
2022-09-06T00:31:50.424Z,45.90
2022-09-06T00:32:01.457Z,45.90
2022-09-06T00:32:12.466Z,45.90
2022-09-06T00:32:23.491Z,45.90
2022-09-06T00:32:35.409Z,45.90
2022-09-06T00:32:46.420Z,45.90
2022-09-06T00:32:57.437Z,45.90
2022-09-06T00:33:08.462Z,45.90
2022-09-06T00:33:19.480Z,45.90
2022-09-06T00:33:31.411Z,45.90
2022-09-06T00:33:42.421Z,45.90
2022-09-06T00:33:53.438Z,45.90
2022-09-06T00:34:04.462Z,45.90
2022-09-06T00:34:15.472Z,45.90
2022-09-06T00:34:26.484Z,45.90
2022-09-06T00:34:38.401Z,45.90
2022-09-06T00:34:49.411Z,45.90
2022-09-06T00:35:00.424Z,45.90
2022-09-06T00:35:11.453Z,45.90
2022-09-06T00:35:22.473Z,46.00
2022-09-06T00:35:33.400Z,46.00
2022-09-06T00:35:44.429Z,46.00
2022-09-06T00:35:55.447Z,46.00
2022-09-06T00:36:06.464Z,46.00
2022-09-06T00:36:17.477Z,46.00
2022-09-06T00:36:29.407Z,46.00
2022-09-06T00:36:40.404Z,46.00
2022-09-06T00:36:52.409Z,46.00
2022-09-06T00:37:03.421Z,46.00
2022-09-06T00:37:14.424Z,46.00
2022-09-06T00:37:26.423Z,46.00
2022-09-06T00:37:38.426Z,46.00
2022-09-06T00:37:49.442Z,46.00
2022-09-06T00:38:00.455Z,46.00
2022-09-06T00:38:11.479Z,46.00
2022-09-06T00:38:22.491Z,46.00
2022-09-06T00:38:33.449Z,46.00
2022-09-06T00:38:44.453Z,46.00
2022-09-06T00:38:55.468Z,46.00
2022-09-06T00:39:06.482Z,46.00
2022-09-06T00:39:17.483Z,46.00
2022-09-06T00:39:28.481Z,46.00
2022-09-06T00:39:39.410Z,46.00
2022-09-06T00:39:50.430Z,46.00
2022-09-06T00:40:01.458Z,46.09
2022-09-06T00:40:12.450Z,46.00
2022-09-06T00:40:23.449Z,46.00
2022-09-06T00:40:35.456Z,46.00
2022-09-06T00:40:46.471Z,46.00
2022-09-06T00:40:58.475Z,46.00
2022-09-06T00:41:10.526Z,46.00
2022-09-06T00:41:21.460Z,46.00
2022-09-06T00:41:33.465Z,46.00
2022-09-06T00:41:45.471Z,46.09
2022-09-06T00:41:57.474Z,46.09
2022-09-06T00:42:08.478Z,46.09
2022-09-06T00:42:20.397Z,46.00
2022-09-06T00:42:32.399Z,46.09
2022-09-06T00:42:43.406Z,46.09
2022-09-06T00:42:55.408Z,46.09
2022-09-06T00:43:06.422Z,46.09
2022-09-06T00:43:17.430Z,46.09
2022-09-06T00:43:28.451Z,46.09
2022-09-06T00:43:40.450Z,46.09
2022-09-06T00:43:51.451Z,46.09
2022-09-06T00:44:03.452Z,46.09
2022-09-06T00:44:14.462Z,46.09
2022-09-06T00:44:25.467Z,46.09
2022-09-06T00:44:36.471Z,46.09
2022-09-06T00:44:48.469Z,46.09
2022-09-06T00:44:59.471Z,46.09
2022-09-06T00:45:11.487Z,46.09
2022-09-06T00:45:22.479Z,46.09
2022-09-06T00:45:34.398Z,46.09
2022-09-06T00:45:45.419Z,46.09
2022-09-06T00:45:56.497Z,46.09
2022-09-06T00:46:07.428Z,46.00
2022-09-06T00:46:18.425Z,46.09
2022-09-06T00:46:29.479Z,46.00
2022-09-06T00:46:40.526Z,46.00
2022-09-06T00:46:51.390Z,46.00
2022-09-06T00:47:03.394Z,46.00
2022-09-06T00:47:14.401Z,46.00
2022-09-06T00:47:26.401Z,46.00
2022-09-06T00:47:37.415Z,46.00
2022-09-06T00:47:48.422Z,46.00
2022-09-06T00:47:59.423Z,46.00
2022-09-06T00:48:11.426Z,46.00
2022-09-06T00:48:22.439Z,46.00
2022-09-06T00:48:33.455Z,46.00
2022-09-06T00:48:44.457Z,46.00
2022-09-06T00:48:55.472Z,46.00
2022-09-06T00:49:06.479Z,46.00
2022-09-06T00:49:18.486Z,46.00
2022-09-06T00:49:29.397Z,46.00
2022-09-06T00:49:40.397Z,46.00
2022-09-06T00:49:51.409Z,46.00
2022-09-06T00:50:02.417Z,46.00
2022-09-06T00:50:13.432Z,46.00
2022-09-06T00:50:24.435Z,46.00
2022-09-06T00:50:35.454Z,46.00
2022-09-06T00:50:47.456Z,46.00
2022-09-06T00:50:58.462Z,46.00
2022-09-06T00:51:09.486Z,46.00
2022-09-06T00:51:21.400Z,46.00
2022-09-06T00:51:32.418Z,46.00
2022-09-06T00:51:44.418Z,46.00
2022-09-06T00:51:55.433Z,46.00
2022-09-06T00:52:06.433Z,46.00
2022-09-06T00:52:17.441Z,46.00
2022-09-06T00:52:28.455Z,46.00
2022-09-06T00:52:40.461Z,46.00
2022-09-06T00:52:51.468Z,46.00
2022-09-06T00:53:03.468Z,46.00
2022-09-06T00:53:15.468Z,46.00
2022-09-06T00:53:26.472Z,46.00
2022-09-06T00:53:37.485Z,46.00
2022-09-06T00:53:49.411Z,46.00
2022-09-06T00:54:00.468Z,46.09
2022-09-06T00:54:11.444Z,46.00
2022-09-06T00:54:22.447Z,46.01
2022-09-06T00:54:33.459Z,46.00
2022-09-06T00:54:44.473Z,46.12
2022-09-06T00:54:55.481Z,46.12
2022-09-06T00:55:07.485Z,46.09
2022-09-06T00:55:18.491Z,46.09
2022-09-06T00:55:30.408Z,46.09
2022-09-06T00:55:41.422Z,46.09
2022-09-06T00:55:53.428Z,46.20
2022-09-06T00:56:05.429Z,46.22
2022-09-06T00:56:17.447Z,46.20
2022-09-06T00:56:28.453Z,46.22
2022-09-06T00:56:40.462Z,46.22
2022-09-06T00:56:52.462Z,46.22
2022-09-06T00:57:03.464Z,46.20
2022-09-06T00:57:14.477Z,46.22
2022-09-06T00:57:26.484Z,46.12
2022-09-06T00:57:38.404Z,46.22
2022-09-06T00:57:50.407Z,46.22
2022-09-06T00:58:01.412Z,46.20
2022-09-06T00:58:12.432Z,46.22
2022-09-06T00:58:23.445Z,46.22
2022-09-06T00:58:35.451Z,46.22
2022-09-06T00:58:46.468Z,46.12
2022-09-06T00:58:58.477Z,46.12
2022-09-06T00:59:09.481Z,46.12
2022-09-06T00:59:21.400Z,46.12
2022-09-06T00:59:32.408Z,46.12
2022-09-06T00:59:43.426Z,46.12
2022-09-06T00:59:54.438Z,46.12
2022-09-06T01:00:06.447Z,46.12
2022-09-06T01:00:17.450Z,46.12
2022-09-06T01:00:28.456Z,46.12
2022-09-06T01:00:39.457Z,46.12
2022-09-06T01:00:50.478Z,46.12
2022-09-06T01:01:01.486Z,46.12
2022-09-06T01:01:13.583Z,46.12
2022-09-06T01:01:25.597Z,46.12
2022-09-06T01:01:37.540Z,46.12
2022-09-06T01:01:48.648Z,46.12
2022-09-06T01:02:00.660Z,46.12
2022-09-06T01:02:12.589Z,46.12
2022-09-06T01:02:24.769Z,46.12
2022-09-06T01:02:36.646Z,46.12
2022-09-06T01:02:47.658Z,46.12
2022-09-06T01:02:58.482Z,46.12
2022-09-06T01:03:10.400Z,46.12
2022-09-06T01:03:21.420Z,46.22
2022-09-06T01:03:33.428Z,46.22
2022-09-06T01:03:44.442Z,46.22
2022-09-06T01:03:55.463Z,46.22
2022-09-06T01:04:07.462Z,46.22
2022-09-06T01:04:18.467Z,46.22
2022-09-06T01:04:30.463Z,46.22
2022-09-06T01:04:42.468Z,46.22
2022-09-06T01:04:53.468Z,46.12
2022-09-06T01:05:05.473Z,46.22
2022-09-06T01:05:16.473Z,46.22
2022-09-06T01:05:27.481Z,46.22
2022-09-06T01:05:39.393Z,46.22
2022-09-06T01:05:54.337Z,46.22
2022-09-06T01:06:01.407Z,46.22
2022-09-06T01:06:12.426Z,46.22
2022-09-06T01:06:23.444Z,46.22
2022-09-06T01:06:34.456Z,46.22
2022-09-06T01:06:46.455Z,46.22
2022-09-06T01:06:57.461Z,46.22
2022-09-06T01:07:08.464Z,46.22
2022-09-06T01:07:19.481Z,46.22
2022-09-06T01:07:31.396Z,46.22
2022-09-06T01:07:42.402Z,46.22
2022-09-06T01:07:53.403Z,46.22
2022-09-06T01:08:04.409Z,46.22
2022-09-06T01:08:15.413Z,46.22
2022-09-06T01:08:27.586Z,46.22
2022-09-06T01:08:38.442Z,46.22
2022-09-06T01:08:50.452Z,46.22
2022-09-06T01:09:01.462Z,46.22
2022-09-06T01:09:13.463Z,46.22
2022-09-06T01:09:24.464Z,46.22
2022-09-06T01:09:36.471Z,46.22
2022-09-06T01:09:47.475Z,46.22
2022-09-06T01:09:58.390Z,46.22
2022-09-06T01:10:09.387Z,46.22
2022-09-06T01:10:20.392Z,46.22
2022-09-06T01:10:31.409Z,46.22
2022-09-06T01:10:43.412Z,46.22
2022-09-06T01:10:54.432Z,46.22
2022-09-06T01:11:06.437Z,46.22
2022-09-06T01:11:17.442Z,46.22
2022-09-06T01:11:28.446Z,46.22
2022-09-06T01:11:39.472Z,46.22
2022-09-06T01:11:51.394Z,46.22
2022-09-06T01:12:02.397Z,46.22
2022-09-06T01:12:13.406Z,46.22
2022-09-06T01:12:24.413Z,46.22
2022-09-06T01:12:35.420Z,46.22
2022-09-06T01:12:46.437Z,46.22
2022-09-06T01:12:58.445Z,46.22
2022-09-06T01:13:09.448Z,46.22
2022-09-06T01:13:20.454Z,46.22
2022-09-06T01:13:31.464Z,46.22
2022-09-06T01:13:42.477Z,46.22
2022-09-06T01:13:54.397Z,46.22
2022-09-06T01:14:05.400Z,46.22
2022-09-06T01:14:16.422Z,46.22
2022-09-06T01:14:27.440Z,46.22
2022-09-06T01:14:38.449Z,46.22
2022-09-06T01:14:49.459Z,46.22
2022-09-06T01:15:00.475Z,46.22
2022-09-06T01:15:11.483Z,46.22
2022-09-06T01:15:23.457Z,46.22
2022-09-06T01:15:34.484Z,46.22
2022-09-06T01:15:45.545Z,46.22
2022-09-06T01:15:57.447Z,46.22
2022-09-06T01:16:08.498Z,46.22
2022-09-06T01:16:19.510Z,46.22
2022-09-06T01:16:31.407Z,46.22
2022-09-06T01:16:42.420Z,46.22
2022-09-06T01:16:54.421Z,46.22
2022-09-06T01:17:06.429Z,46.22
2022-09-06T01:17:18.433Z,46.22
2022-09-06T01:17:29.438Z,46.22
2022-09-06T01:17:40.457Z,46.22
2022-09-06T01:17:51.470Z,46.22
2022-09-06T01:18:02.394Z,46.22
2022-09-06T01:18:13.411Z,46.22
2022-09-06T01:18:24.474Z,46.22
2022-09-06T01:18:35.436Z,46.22
2022-09-06T01:18:46.449Z,46.22
2022-09-06T01:18:57.465Z,46.22
2022-09-06T01:19:08.466Z,46.22
2022-09-06T01:19:19.477Z,46.22
2022-09-06T01:19:30.481Z,46.22
2022-09-06T01:19:42.389Z,46.22
2022-09-06T01:19:53.406Z,46.22
2022-09-06T01:20:04.440Z,46.22
2022-09-06T01:20:16.433Z,46.22
2022-09-06T01:20:27.443Z,46.22
2022-09-06T01:20:38.453Z,46.22
2022-09-06T01:20:49.464Z,46.22
2022-09-06T01:21:00.472Z,46.22
2022-09-06T01:21:11.484Z,46.22
2022-09-06T01:21:22.405Z,46.22
2022-09-06T01:21:33.411Z,46.22
2022-09-06T01:21:44.414Z,46.22
2022-09-06T01:21:55.421Z,46.22
2022-09-06T01:22:07.428Z,46.22
2022-09-06T01:22:18.438Z,46.22
2022-09-06T01:22:29.455Z,46.22
2022-09-06T01:22:40.471Z,46.22
2022-09-06T01:22:51.471Z,46.22
2022-09-06T01:23:02.485Z,46.22
2022-09-06T01:23:14.387Z,46.22
2022-09-06T01:23:25.391Z,46.22
2022-09-06T01:23:36.388Z,46.22
2022-09-06T01:23:47.403Z,46.22
2022-09-06T01:23:58.407Z,46.22
2022-09-06T01:24:09.412Z,46.22
2022-09-06T01:24:20.426Z,46.22
2022-09-06T01:24:31.432Z,46.22
2022-09-06T01:24:42.447Z,46.22
2022-09-06T01:24:54.457Z,46.22
2022-09-06T01:25:05.470Z,46.22
2022-09-06T01:25:17.472Z,46.22
2022-09-06T01:25:29.471Z,46.22
2022-09-06T01:25:41.475Z,46.22
2022-09-06T01:25:52.482Z,46.22
2022-09-06T01:26:03.386Z,46.22
2022-09-06T01:26:14.395Z,46.22
2022-09-06T01:26:25.418Z,46.22
2022-09-06T01:26:36.427Z,46.22
2022-09-06T01:26:47.429Z,46.22
2022-09-06T01:26:58.450Z,46.22
2022-09-06T01:27:09.456Z,46.22
2022-09-06T01:27:20.463Z,46.22
2022-09-06T01:27:31.477Z,46.22
2022-09-06T01:27:43.482Z,46.22
2022-09-06T01:27:54.484Z,46.22
2022-09-06T01:28:06.412Z,46.22
2022-09-06T01:28:17.419Z,46.22
2022-09-06T01:28:29.438Z,46.22
2022-09-06T01:28:41.428Z,46.22
2022-09-06T01:28:52.437Z,46.22
2022-09-06T01:29:03.450Z,46.22
2022-09-06T01:29:14.457Z,46.22
2022-09-06T01:29:25.470Z,46.22
2022-09-06T01:29:36.480Z,46.22
2022-09-06T01:29:47.483Z,46.31
2022-09-06T01:29:59.407Z,46.31
2022-09-06T01:30:10.418Z,46.22
2022-09-06T01:30:21.416Z,46.22
2022-09-06T01:30:33.575Z,46.22
2022-09-06T01:30:44.512Z,46.22
2022-09-06T01:30:55.410Z,46.22
2022-09-06T01:31:06.461Z,46.31
2022-09-06T01:31:17.527Z,46.31
2022-09-06T01:31:29.553Z,46.31
2022-09-06T01:31:41.393Z,46.31
2022-09-06T01:31:52.412Z,46.31
2022-09-06T01:32:03.411Z,46.31
2022-09-06T01:32:14.429Z,46.31
2022-09-06T01:32:25.438Z,46.31
2022-09-06T01:32:36.447Z,46.31
2022-09-06T01:32:47.451Z,46.31
2022-09-06T01:32:58.452Z,46.31
2022-09-06T01:33:10.449Z,46.31
2022-09-06T01:33:21.453Z,46.31
2022-09-06T01:33:32.469Z,46.31
2022-09-06T01:33:43.385Z,46.31
2022-09-06T01:33:54.396Z,46.31
2022-09-06T01:34:05.403Z,46.31
2022-09-06T01:34:16.418Z,46.31
2022-09-06T01:34:27.428Z,46.31
2022-09-06T01:34:39.433Z,46.31
2022-09-06T01:34:50.432Z,46.31
2022-09-06T01:35:01.436Z,46.31
2022-09-06T01:35:13.431Z,46.31
2022-09-06T01:35:25.434Z,46.31
2022-09-06T01:35:36.437Z,46.31
2022-09-06T01:35:47.441Z,46.31
2022-09-06T01:35:58.451Z,46.31
2022-09-06T01:36:09.461Z,46.31
2022-09-06T01:36:20.484Z,46.31
2022-09-06T01:36:31.488Z,46.31
2022-09-06T01:37:06.249Z,46.31
2022-09-06T01:37:09.411Z,46.31
2022-09-06T01:37:10.295Z,46.31
2022-09-06T01:37:18.444Z,46.31
2022-09-06T01:37:29.453Z,46.31
2022-09-06T01:37:40.460Z,46.31
2022-09-06T01:37:51.475Z,46.31
2022-09-06T01:38:03.402Z,46.31
2022-09-06T01:38:14.410Z,46.31
2022-09-06T01:38:26.522Z,46.42
2022-09-06T01:38:37.432Z,46.31
2022-09-06T01:38:49.441Z,46.31
2022-09-06T01:39:00.457Z,46.31
2022-09-06T01:39:11.473Z,46.31
2022-09-06T01:39:22.641Z,46.31
2022-09-06T01:39:34.581Z,46.31
2022-09-06T01:39:45.513Z,46.31
2022-09-06T01:39:57.542Z,46.31
2022-09-06T01:40:09.434Z,46.31
2022-09-06T01:40:21.404Z,46.31
2022-09-06T01:40:32.403Z,46.31
2022-09-06T01:40:44.410Z,46.31
2022-09-06T01:40:55.423Z,46.31
2022-09-06T01:41:06.425Z,46.42
2022-09-06T01:41:17.427Z,46.31
2022-09-06T01:41:29.444Z,46.31
2022-09-06T01:41:40.468Z,46.42
2022-09-06T01:41:51.471Z,46.31
2022-09-06T01:42:02.478Z,46.31
2022-09-06T01:42:14.399Z,46.31
2022-09-06T01:42:25.410Z,46.31
2022-09-06T01:42:36.428Z,46.31
2022-09-06T01:42:48.446Z,46.31
2022-09-06T01:42:59.481Z,46.42
2022-09-06T01:43:11.400Z,46.42
2022-09-06T01:43:22.403Z,46.42
2022-09-06T01:43:33.413Z,46.42
2022-09-06T01:43:44.430Z,46.31
2022-09-06T01:43:55.432Z,46.42
2022-09-06T01:44:06.447Z,46.31
2022-09-06T01:44:17.464Z,46.31
2022-09-06T01:44:28.468Z,46.42
2022-09-06T01:44:39.473Z,46.31
2022-09-06T01:44:51.396Z,46.42
2022-09-06T01:45:02.414Z,46.42
2022-09-06T01:45:14.413Z,46.42
2022-09-06T01:45:25.421Z,46.42
2022-09-06T01:45:36.427Z,46.42
2022-09-06T01:45:48.503Z,46.42
2022-09-06T01:45:59.455Z,46.42
2022-09-06T01:46:10.506Z,46.42
2022-09-06T01:46:21.542Z,46.42
2022-09-06T01:46:32.461Z,46.42
2022-09-06T01:46:43.422Z,46.42
2022-09-06T01:46:54.436Z,46.42
2022-09-06T01:47:05.443Z,46.42
2022-09-06T01:47:16.444Z,46.42
2022-09-06T01:47:27.472Z,46.42
2022-09-06T01:47:39.471Z,46.42
2022-09-06T01:47:50.382Z,46.42
2022-09-06T01:48:01.484Z,46.42
2022-09-06T01:48:12.387Z,46.44
2022-09-06T01:48:23.470Z,46.42
2022-09-06T01:48:34.384Z,46.42
2022-09-06T01:48:45.393Z,46.44
2022-09-06T01:48:56.412Z,46.42
2022-09-06T01:49:07.422Z,46.42
2022-09-06T01:49:19.426Z,46.42
2022-09-06T01:49:30.436Z,46.42
2022-09-06T01:49:41.457Z,46.44
2022-09-06T01:49:52.463Z,46.44
2022-09-06T01:50:03.467Z,46.42
2022-09-06T01:50:15.472Z,46.44
2022-09-06T01:50:26.389Z,46.44
2022-09-06T01:50:38.401Z,46.42
2022-09-06T01:50:49.410Z,46.42
2022-09-06T01:51:01.424Z,46.44
2022-09-06T01:51:12.431Z,46.42
2022-09-06T01:51:23.440Z,46.42
2022-09-06T01:51:34.452Z,46.44
2022-09-06T01:51:45.473Z,46.44
2022-09-06T01:51:57.403Z,46.44
2022-09-06T01:52:08.437Z,46.44
2022-09-06T01:52:19.448Z,46.44
2022-09-06T01:52:30.464Z,46.44
2022-09-06T01:52:41.475Z,46.44
2022-09-06T01:52:53.482Z,46.44
2022-09-06T01:53:04.392Z,46.44
2022-09-06T01:53:15.408Z,46.44
2022-09-06T01:53:26.417Z,46.44
2022-09-06T01:53:37.421Z,46.44
2022-09-06T01:53:48.428Z,46.44
2022-09-06T01:53:59.442Z,46.44
2022-09-06T01:54:10.455Z,46.44
2022-09-06T01:54:21.454Z,46.44
2022-09-06T01:54:32.465Z,46.44
2022-09-06T01:54:43.388Z,46.44
2022-09-06T01:54:54.413Z,46.44
2022-09-06T01:55:05.414Z,46.44
2022-09-06T01:55:16.430Z,46.44
2022-09-06T01:55:27.442Z,46.44
2022-09-06T01:55:38.445Z,46.44
2022-09-06T01:55:49.453Z,46.44
2022-09-06T01:56:00.488Z,46.44
2022-09-06T01:56:12.402Z,46.44
2022-09-06T01:56:23.402Z,46.44
2022-09-06T01:56:34.414Z,46.44
2022-09-06T01:56:45.424Z,46.44
2022-09-06T01:56:56.427Z,46.44
2022-09-06T01:57:07.443Z,46.44
2022-09-06T01:57:19.446Z,46.44
2022-09-06T01:57:30.470Z,46.44
2022-09-06T01:57:41.482Z,46.44
2022-09-06T01:57:53.403Z,46.44
2022-09-06T01:58:04.408Z,46.44
2022-09-06T01:58:15.428Z,46.44
2022-09-06T01:58:26.508Z,46.44
2022-09-06T01:58:38.412Z,46.44
2022-09-06T01:58:50.411Z,46.44
2022-09-06T01:59:02.421Z,46.44
2022-09-06T01:59:13.436Z,46.44
2022-09-06T01:59:25.441Z,46.44
2022-09-06T01:59:36.455Z,46.44
2022-09-06T01:59:47.452Z,46.44
2022-09-06T01:59:58.458Z,46.44
2022-09-06T02:00:09.466Z,46.44
2022-09-06T02:00:20.469Z,46.44
2022-09-06T02:00:31.478Z,46.44
2022-09-06T02:00:43.390Z,46.44
2022-09-06T02:00:54.402Z,46.44
2022-09-06T02:01:05.481Z,46.44
2022-09-06T02:01:16.528Z,46.44
2022-09-06T02:01:28.523Z,46.44
2022-09-06T02:01:39.493Z,46.44
2022-09-06T02:01:51.439Z,46.44
2022-09-06T02:02:03.439Z,46.44
2022-09-06T02:02:15.447Z,46.44
2022-09-06T02:02:26.471Z,46.44
2022-09-06T02:02:37.491Z,46.44
2022-09-06T02:02:48.559Z,46.44
2022-09-06T02:03:00.456Z,46.44
2022-09-06T02:03:11.464Z,46.44
2022-09-06T02:03:22.467Z,46.44
2022-09-06T02:03:33.478Z,46.44
2022-09-06T02:03:45.479Z,46.44
2022-09-06T02:03:56.480Z,46.44
2022-09-06T02:04:07.385Z,46.44
2022-09-06T02:04:18.393Z,46.44
2022-09-06T02:04:30.407Z,46.44
2022-09-06T02:04:42.414Z,46.44
2022-09-06T02:04:53.420Z,46.44
2022-09-06T02:05:04.430Z,46.44
2022-09-06T02:05:15.454Z,46.44
2022-09-06T02:05:26.474Z,46.44
2022-09-06T02:05:37.476Z,46.44
2022-09-06T02:05:49.478Z,46.44
2022-09-06T02:06:00.384Z,46.44
2022-09-06T02:06:11.391Z,46.44
2022-09-06T02:06:22.409Z,46.44
2022-09-06T02:06:33.422Z,46.44
2022-09-06T02:06:45.427Z,46.44
2022-09-06T02:06:56.445Z,46.44
2022-09-06T02:07:07.454Z,46.44
2022-09-06T02:07:18.475Z,46.44
2022-09-06T02:07:29.478Z,46.44
2022-09-06T02:07:40.383Z,46.44
2022-09-06T02:07:51.402Z,46.44
2022-09-06T02:08:02.404Z,46.44
2022-09-06T02:08:13.418Z,46.44
2022-09-06T02:08:24.437Z,46.44
2022-09-06T02:08:35.446Z,46.44
2022-09-06T02:08:46.444Z,46.44
2022-09-06T02:08:58.450Z,46.44
2022-09-06T02:09:09.460Z,46.44
2022-09-06T02:09:20.469Z,46.44
2022-09-06T02:09:31.466Z,46.44
2022-09-06T02:09:43.469Z,46.44
2022-09-06T02:09:54.380Z,46.44
2022-09-06T02:10:05.388Z,46.44
2022-09-06T02:10:16.407Z,46.44
2022-09-06T02:10:28.412Z,46.44
2022-09-06T02:10:39.417Z,46.44
2022-09-06T02:10:50.430Z,46.44
2022-09-06T02:11:01.441Z,46.44
2022-09-06T02:11:12.462Z,46.44
2022-09-06T02:11:23.462Z,46.44
2022-09-06T02:11:34.476Z,46.44
2022-09-06T02:11:46.388Z,46.44
2022-09-06T02:11:57.398Z,46.44
2022-09-06T02:12:09.391Z,46.44
2022-09-06T02:12:20.396Z,46.44
2022-09-06T02:12:31.402Z,46.44
2022-09-06T02:12:42.413Z,46.44
2022-09-06T02:12:53.413Z,46.44
2022-09-06T02:13:05.424Z,46.44
2022-09-06T02:13:16.434Z,46.44
2022-09-06T02:13:28.440Z,46.44
2022-09-06T02:13:39.460Z,46.44
2022-09-06T02:13:51.473Z,46.44
2022-09-06T02:14:02.383Z,46.44
2022-09-06T02:14:13.384Z,46.44
2022-09-06T02:14:24.393Z,46.44
2022-09-06T02:14:36.402Z,46.44
2022-09-06T02:14:47.422Z,46.44
2022-09-06T02:14:59.438Z,46.44
2022-09-06T02:15:10.441Z,46.44
2022-09-06T02:15:21.449Z,46.44
2022-09-06T02:15:33.451Z,46.44
2022-09-06T02:15:45.454Z,46.44
2022-09-06T02:15:56.471Z,46.44
2022-09-06T02:16:07.488Z,46.44
2022-09-06T02:16:19.498Z,46.44
2022-09-06T02:16:30.519Z,46.44
2022-09-06T02:16:41.508Z,46.44
2022-09-06T02:16:52.442Z,46.44
2022-09-06T02:17:03.511Z,46.44
2022-09-06T02:17:14.466Z,46.44
2022-09-06T02:17:26.466Z,46.44
2022-09-06T02:17:37.471Z,46.44
2022-09-06T02:17:48.476Z,46.44
2022-09-06T02:18:00.401Z,46.44
2022-09-06T02:18:11.408Z,46.44
2022-09-06T02:18:23.458Z,46.44
2022-09-06T02:18:34.444Z,46.44
2022-09-06T02:18:46.448Z,46.44
2022-09-06T02:18:57.453Z,46.44
2022-09-06T02:19:08.462Z,46.44
2022-09-06T02:19:19.382Z,46.44
2022-09-06T02:19:30.391Z,46.44
2022-09-06T02:19:41.400Z,46.44
2022-09-06T02:19:52.416Z,46.44
2022-09-06T02:20:03.426Z,46.44
2022-09-06T02:20:14.438Z,46.44
2022-09-06T02:20:25.448Z,46.44
2022-09-06T02:20:36.449Z,46.44
2022-09-06T02:20:47.461Z,46.44
2022-09-06T02:20:59.472Z,46.44
2022-09-06T02:21:10.504Z,46.44
2022-09-06T02:21:22.418Z,46.44
2022-09-06T02:21:33.430Z,46.44
2022-09-06T02:21:44.438Z,46.44
2022-09-06T02:21:55.437Z,46.44
2022-09-06T02:22:07.445Z,46.44
2022-09-06T02:22:18.458Z,46.44
2022-09-06T02:22:29.466Z,46.44
2022-09-06T02:22:40.482Z,46.44
2022-09-06T02:22:51.387Z,46.44
2022-09-06T02:23:02.383Z,46.44
2022-09-06T02:23:13.487Z,46.44
2022-09-06T02:23:25.396Z,46.44
2022-09-06T02:23:36.405Z,46.44
2022-09-06T02:23:47.423Z,46.44
2022-09-06T02:23:58.435Z,46.44
2022-09-06T02:24:09.448Z,46.44
2022-09-06T02:24:20.450Z,46.44
2022-09-06T02:24:31.454Z,46.44
2022-09-06T02:24:42.460Z,46.44
2022-09-06T02:24:53.468Z,46.44
2022-09-06T02:25:05.474Z,46.44
2022-09-06T02:25:16.480Z,46.44